createdAt,value
2023-02-02T00:00:26.206Z,4.43
2023-02-02T00:00:58.042Z,4.57
2023-02-02T00:01:30.364Z,4.97
2023-02-02T00:02:02.544Z,4.87
2023-02-02T00:02:36.625Z,4.73
2023-02-02T00:03:11.724Z,5.07
2023-02-02T00:03:46.257Z,5.77
2023-02-02T00:04:26.869Z,6.03
2023-02-02T00:04:59.015Z,5.43
2023-02-02T00:05:30.727Z,5.43
2023-02-02T00:06:04.028Z,5.23
2023-02-02T00:06:35.709Z,4.77
2023-02-02T00:07:07.526Z,4.47
2023-02-02T00:07:41.346Z,4.27
2023-02-02T00:08:16.350Z,4.37
2023-02-02T00:08:51.800Z,4.57
2023-02-02T00:09:28.910Z,4.53
2023-02-02T00:10:00.659Z,4.50
2023-02-02T00:10:32.318Z,4.73
2023-02-02T00:11:13.879Z,5.20
2023-02-02T00:11:47.923Z,4.77
2023-02-02T00:12:19.584Z,4.80
2023-02-02T00:12:51.214Z,4.53
2023-02-02T00:13:25.018Z,4.70
2023-02-02T00:13:56.815Z,4.53
2023-02-02T00:14:28.523Z,4.30
2023-02-02T00:15:01.154Z,3.73
2023-02-02T00:15:33.009Z,3.30
2023-02-02T00:16:29.142Z,3.10
2023-02-02T00:17:03.461Z,2.80
2023-02-02T00:17:37.655Z,2.70
2023-02-02T00:18:09.310Z,2.60
2023-02-02T00:18:40.938Z,2.60
2023-02-02T00:19:19.936Z,2.70
2023-02-02T00:19:51.570Z,3.07
2023-02-02T00:20:24.151Z,2.90
2023-02-02T00:20:55.814Z,2.77
2023-02-02T00:21:28.538Z,2.67
2023-02-02T00:22:00.214Z,2.67
2023-02-02T00:22:31.838Z,2.87
2023-02-02T00:23:09.269Z,2.83
2023-02-02T00:23:40.934Z,2.60
2023-02-02T00:24:14.438Z,2.60
2023-02-02T00:24:46.124Z,2.77
2023-02-02T00:25:19.408Z,2.77
2023-02-02T00:25:58.326Z,2.97
2023-02-02T00:26:32.472Z,2.73
2023-02-02T00:27:06.783Z,2.67
2023-02-02T00:27:38.450Z,3.13
2023-02-02T00:28:12.322Z,2.80
2023-02-02T00:28:46.051Z,2.93
2023-02-02T00:29:23.569Z,2.97
2023-02-02T00:29:57.477Z,2.93
2023-02-02T00:30:29.256Z,2.97
2023-02-02T00:31:01.060Z,2.93
2023-02-02T00:31:33.092Z,3.13
2023-02-02T00:32:04.948Z,3.00
2023-02-02T00:32:36.570Z,3.07
2023-02-02T00:33:08.184Z,3.30
2023-02-02T00:33:39.818Z,3.63
2023-02-02T00:34:13.569Z,3.40
2023-02-02T00:34:45.239Z,3.23
2023-02-02T00:35:16.972Z,3.20
2023-02-02T00:35:48.635Z,3.53
2023-02-02T00:36:21.472Z,3.33
2023-02-02T00:36:53.820Z,3.57
2023-02-02T00:37:27.770Z,3.30
2023-02-02T00:37:59.383Z,3.23
2023-02-02T00:38:31.835Z,3.07
2023-02-02T00:39:04.965Z,3.40
2023-02-02T00:39:36.838Z,3.73
2023-02-02T00:40:10.209Z,3.63
2023-02-02T00:40:41.864Z,3.30
2023-02-02T00:41:13.645Z,3.43
2023-02-02T00:41:46.194Z,3.50
2023-02-02T00:42:18.277Z,3.67
2023-02-02T00:42:50.543Z,3.67
2023-02-02T00:43:24.919Z,4.07
2023-02-02T00:44:15.920Z,3.93
2023-02-02T00:45:09.013Z,3.43
2023-02-02T00:45:41.291Z,3.40
2023-02-02T00:46:16.964Z,3.23
2023-02-02T00:46:48.673Z,3.40
2023-02-02T00:47:20.588Z,3.03
2023-02-02T00:47:52.231Z,2.97
2023-02-02T00:48:28.523Z,2.80
2023-02-02T00:49:00.149Z,2.93
2023-02-02T00:49:32.251Z,2.50
2023-02-02T00:50:04.325Z,2.90
2023-02-02T00:50:35.976Z,2.77
2023-02-02T00:51:07.698Z,2.80
2023-02-02T00:51:42.067Z,2.30
2023-02-02T00:52:13.813Z,2.70
2023-02-02T00:52:48.025Z,2.83
2023-02-02T00:53:20.167Z,3.00
2023-02-02T00:53:51.797Z,2.80
2023-02-02T00:54:31.025Z,2.60
2023-02-02T00:55:02.681Z,2.30
2023-02-02T00:55:34.292Z,2.30
2023-02-02T00:56:06.133Z,2.23
2023-02-02T00:56:37.781Z,2.20
2023-02-02T00:57:13.578Z,2.07
2023-02-02T00:57:45.343Z,2.13
2023-02-02T00:58:24.448Z,1.83
2023-02-02T00:58:56.084Z,1.73
2023-02-02T00:59:27.747Z,1.70
2023-02-02T00:59:59.671Z,2.07
2023-02-02T01:00:31.294Z,2.03
2023-02-02T01:01:02.992Z,1.93
2023-02-02T01:01:35.561Z,2.07
2023-02-02T01:02:09.282Z,2.13
2023-02-02T01:02:43.834Z,1.83
2023-02-02T01:03:16.286Z,1.97
2023-02-02T01:03:49.436Z,2.17
2023-02-02T01:04:21.151Z,2.00
2023-02-02T01:04:52.837Z,2.17
2023-02-02T01:05:26.129Z,2.27
2023-02-02T01:05:57.920Z,2.17
2023-02-02T01:06:29.659Z,2.07
2023-02-02T01:07:01.383Z,2.00
2023-02-02T01:07:33.181Z,1.90
2023-02-02T01:08:05.724Z,1.73
2023-02-02T01:08:37.423Z,2.10
2023-02-02T01:09:09.084Z,2.47
2023-02-02T01:09:40.785Z,2.20
2023-02-02T01:10:18.072Z,2.03
2023-02-02T01:10:49.703Z,1.83
2023-02-02T01:11:21.385Z,2.20
2023-02-02T01:11:53.029Z,2.33
2023-02-02T01:12:26.349Z,2.30
2023-02-02T01:12:58.022Z,2.00
2023-02-02T01:13:29.658Z,1.97
2023-02-02T01:14:01.369Z,1.90
2023-02-02T01:14:32.995Z,1.77
2023-02-02T01:15:07.819Z,2.00
2023-02-02T01:15:39.478Z,1.60
2023-02-02T01:16:19.054Z,2.10
2023-02-02T01:16:50.828Z,2.03
2023-02-02T01:17:22.562Z,2.07
2023-02-02T01:17:54.213Z,1.80
2023-02-02T01:18:26.429Z,2.20
2023-02-02T01:18:58.049Z,2.30
2023-02-02T01:19:31.205Z,2.27
2023-02-02T01:20:06.429Z,2.33
2023-02-02T01:20:40.674Z,2.27
2023-02-02T01:21:15.679Z,2.13
2023-02-02T01:21:51.167Z,1.97
2023-02-02T01:22:22.905Z,2.20
2023-02-02T01:22:54.678Z,2.07
2023-02-02T01:23:26.607Z,2.20
2023-02-02T01:23:58.257Z,2.17
2023-02-02T01:24:32.738Z,2.10
2023-02-02T01:25:05.276Z,2.10
2023-02-02T01:25:38.607Z,2.17
2023-02-02T01:26:12.050Z,2.07
2023-02-02T01:26:43.706Z,2.20
2023-02-02T01:27:15.347Z,2.20
2023-02-02T01:27:46.998Z,2.37
2023-02-02T01:28:19.670Z,2.50
2023-02-02T01:28:51.347Z,2.27
2023-02-02T01:29:23.013Z,2.23
2023-02-02T01:29:54.652Z,2.03
2023-02-02T01:30:26.279Z,1.97
2023-02-02T01:30:58.918Z,2.03
2023-02-02T01:31:30.688Z,1.97
2023-02-02T01:32:06.690Z,2.10
2023-02-02T01:32:38.337Z,2.13
2023-02-02T01:33:09.981Z,1.90
2023-02-02T01:33:43.826Z,2.13
2023-02-02T01:34:15.499Z,2.00
2023-02-02T01:34:49.277Z,2.10
2023-02-02T01:35:20.904Z,1.67
2023-02-02T01:35:55.222Z,1.73
2023-02-02T01:36:26.894Z,1.90
2023-02-02T01:36:58.578Z,1.97
2023-02-02T01:37:30.211Z,1.93
2023-02-02T01:38:01.842Z,2.00
2023-02-02T01:38:37.024Z,1.93
2023-02-02T01:39:10.553Z,1.83
2023-02-02T01:39:42.302Z,2.00
2023-02-02T01:40:14.149Z,2.40
2023-02-02T01:40:54.164Z,2.20
2023-02-02T01:41:28.895Z,1.80
2023-02-02T01:42:00.599Z,2.00
2023-02-02T01:42:32.284Z,2.13
2023-02-02T01:43:22.192Z,1.77
2023-02-02T01:44:00.341Z,1.80
2023-02-02T01:45:13.330Z,2.07
2023-02-02T01:45:44.970Z,1.97
2023-02-02T01:46:17.786Z,2.10
2023-02-02T01:46:49.439Z,1.93
2023-02-02T01:47:26.195Z,1.90
2023-02-02T01:48:00.420Z,1.87
2023-02-02T01:48:35.186Z,1.90
2023-02-02T01:49:14.438Z,1.90
2023-02-02T01:49:48.784Z,1.40
2023-02-02T01:50:34.738Z,1.57
2023-02-02T01:51:15.980Z,1.73
2023-02-02T01:51:59.602Z,1.83
2023-02-02T01:52:34.345Z,1.83
2023-02-02T01:53:07.963Z,1.50
2023-02-02T01:53:42.373Z,1.50
2023-02-02T01:54:29.674Z,1.60
2023-02-02T01:55:08.450Z,1.87
2023-02-02T01:55:42.344Z,1.47
2023-02-02T01:56:24.694Z,1.50
2023-02-02T01:57:02.534Z,1.80
2023-02-02T01:57:48.305Z,1.67
2023-02-02T01:58:29.001Z,1.70
2023-02-02T01:59:02.358Z,1.63
2023-02-02T01:59:35.942Z,1.80
2023-02-02T02:00:14.182Z,1.70
2023-02-02T02:00:47.097Z,1.80
2023-02-02T02:01:23.748Z,1.83
2023-02-02T02:01:58.538Z,1.83
2023-02-02T02:02:32.244Z,1.77
2023-02-02T02:03:11.462Z,1.60
2023-02-02T02:03:46.452Z,1.53
2023-02-02T02:04:19.023Z,1.67
2023-02-02T02:04:51.294Z,1.57
2023-02-02T02:05:28.438Z,1.37
2023-02-02T02:06:13.243Z,1.43
2023-02-02T02:06:45.835Z,1.33
2023-02-02T02:07:24.833Z,1.50
2023-02-02T02:08:08.245Z,1.67
2023-02-02T02:08:42.212Z,1.50
2023-02-02T02:09:14.464Z,1.63
2023-02-02T02:09:46.109Z,1.53
2023-02-02T02:10:18.830Z,1.37
2023-02-02T02:11:00.631Z,1.40
2023-02-02T02:11:34.714Z,1.73
2023-02-02T02:12:14.449Z,1.70
2023-02-02T02:12:48.722Z,1.63
2023-02-02T02:13:45.452Z,1.53
2023-02-02T02:14:36.074Z,1.63
2023-02-02T02:15:27.008Z,1.60
2023-02-02T02:16:21.552Z,1.57
2023-02-02T02:17:22.518Z,1.47
2023-02-02T02:18:03.042Z,1.77
2023-02-02T02:18:48.785Z,1.63
2023-02-02T02:20:03.923Z,1.67
2023-02-02T02:21:07.628Z,1.77
2023-02-02T02:22:12.814Z,1.63
2023-02-02T02:23:47.047Z,1.70
2023-02-02T02:24:52.444Z,2.00
2023-02-02T02:25:59.091Z,1.53
2023-02-02T02:26:51.283Z,2.03
2023-02-02T02:27:31.997Z,1.93
2023-02-02T02:28:24.847Z,1.87
2023-02-02T02:29:09.595Z,1.90
2023-02-02T02:30:18.277Z,2.13
2023-02-02T02:31:32.286Z,1.93
2023-02-02T02:32:29.989Z,2.13
2023-02-02T02:33:22.599Z,2.13
2023-02-02T02:34:05.732Z,2.20
2023-02-02T02:34:47.979Z,2.17
2023-02-02T02:35:36.970Z,2.07
2023-02-02T02:36:34.439Z,1.93
2023-02-02T02:37:29.473Z,2.13
2023-02-02T02:38:12.000Z,1.93
2023-02-02T02:39:15.732Z,1.97
2023-02-02T02:40:20.578Z,2.30
2023-02-02T02:41:02.186Z,1.70
2023-02-02T02:41:41.693Z,1.80
2023-02-02T02:42:19.044Z,1.87
2023-02-02T02:42:58.439Z,2.20
2023-02-02T02:43:40.034Z,1.93
2023-02-02T02:44:16.093Z,2.03
2023-02-02T02:44:49.920Z,1.73
2023-02-02T02:45:23.996Z,1.60
2023-02-02T02:45:56.362Z,1.73
2023-02-02T02:46:28.691Z,1.90
2023-02-02T02:47:01.117Z,1.80
2023-02-02T02:47:34.866Z,1.77
2023-02-02T02:48:10.373Z,1.60
2023-02-02T02:48:45.185Z,1.43
2023-02-02T02:49:17.257Z,1.43
2023-02-02T02:49:57.333Z,1.57
2023-02-02T02:50:29.051Z,1.33
2023-02-02T02:51:37.555Z,1.60
2023-02-02T02:52:09.429Z,1.50
2023-02-02T02:52:41.747Z,1.37
2023-02-02T02:53:21.123Z,1.30
2023-02-02T02:53:52.961Z,1.20
2023-02-02T02:54:29.456Z,1.43
2023-02-02T02:55:10.547Z,1.50
2023-02-02T02:55:51.204Z,1.40
2023-02-02T02:56:35.754Z,1.53
2023-02-02T02:57:24.841Z,1.57
2023-02-02T02:58:02.279Z,1.53
2023-02-02T02:58:55.039Z,1.63
2023-02-02T02:59:57.170Z,1.63
2023-02-02T03:00:38.076Z,1.60
2023-02-02T03:01:29.721Z,1.53
2023-02-02T03:02:26.597Z,1.40
2023-02-02T03:02:58.256Z,1.67
2023-02-02T03:03:50.869Z,1.33
2023-02-02T03:04:28.108Z,1.60
2023-02-02T03:05:17.821Z,1.73
2023-02-02T03:06:04.218Z,1.50
2023-02-02T03:07:09.868Z,1.57
2023-02-02T03:07:48.583Z,1.43
2023-02-02T03:08:32.334Z,1.50
2023-02-02T03:09:11.073Z,1.47
2023-02-02T03:09:47.097Z,1.40
2023-02-02T03:10:25.463Z,1.40
2023-02-02T03:10:59.570Z,1.47
2023-02-02T03:11:34.320Z,1.40
2023-02-02T03:12:06.273Z,1.27
2023-02-02T03:12:49.406Z,1.27
2023-02-02T03:13:21.328Z,1.17
2023-02-02T03:13:53.180Z,1.23
2023-02-02T03:14:27.666Z,1.40
2023-02-02T03:14:59.300Z,1.30
2023-02-02T03:15:30.993Z,1.47
2023-02-02T03:16:02.823Z,1.50
2023-02-02T03:16:34.510Z,1.03
2023-02-02T03:17:06.135Z,1.27
2023-02-02T03:17:37.838Z,1.33
2023-02-02T03:18:10.045Z,1.17
2023-02-02T03:18:41.852Z,1.27
2023-02-02T03:19:13.492Z,1.17
2023-02-02T03:19:48.069Z,1.17
2023-02-02T03:20:22.223Z,1.47
2023-02-02T03:20:56.960Z,1.47
2023-02-02T03:21:28.607Z,1.20
2023-02-02T03:22:02.840Z,1.40
2023-02-02T03:22:34.534Z,1.37
2023-02-02T03:23:08.773Z,1.23
2023-02-02T03:23:40.463Z,1.37
2023-02-02T03:24:12.338Z,1.37
2023-02-02T03:24:43.974Z,1.13
2023-02-02T03:25:16.455Z,1.23
2023-02-02T03:25:48.343Z,1.10
2023-02-02T03:26:20.303Z,1.07
2023-02-02T03:26:52.292Z,1.13
2023-02-02T03:27:23.988Z,1.17
2023-02-02T03:27:55.786Z,1.27
2023-02-02T03:28:29.459Z,1.20
2023-02-02T03:29:01.719Z,1.17
2023-02-02T03:29:33.568Z,1.17
2023-02-02T03:30:13.102Z,1.20
2023-02-02T03:30:47.706Z,0.97
2023-02-02T03:31:19.931Z,0.97
2023-02-02T03:31:51.733Z,1.07
2023-02-02T03:32:23.462Z,1.33
2023-02-02T03:33:40.828Z,1.17
2023-02-02T03:34:12.600Z,1.10
2023-02-02T03:34:44.272Z,1.23
2023-02-02T03:35:16.102Z,1.57
2023-02-02T03:35:47.794Z,1.17
2023-02-02T03:36:19.425Z,0.90
2023-02-02T03:36:51.129Z,1.10
2023-02-02T03:37:25.107Z,0.90
2023-02-02T03:37:57.107Z,0.90
2023-02-02T03:38:28.779Z,0.80
2023-02-02T03:39:02.550Z,1.30
2023-02-02T03:39:34.233Z,1.23
2023-02-02T03:40:06.801Z,1.00
2023-02-02T03:40:39.643Z,0.93
2023-02-02T03:41:12.416Z,1.00
2023-02-02T03:41:44.051Z,0.97
2023-02-02T03:42:15.699Z,1.00
2023-02-02T03:42:47.327Z,1.07
2023-02-02T03:43:28.499Z,1.17
2023-02-02T03:44:00.168Z,1.00
2023-02-02T03:44:33.560Z,0.87
2023-02-02T03:45:06.435Z,0.93
2023-02-02T03:45:40.766Z,0.83
2023-02-02T03:46:12.457Z,1.00
2023-02-02T03:46:44.120Z,1.30
2023-02-02T03:47:15.766Z,1.10
2023-02-02T03:47:47.464Z,0.80
2023-02-02T03:48:19.114Z,0.83
2023-02-02T03:48:50.796Z,0.97
2023-02-02T03:49:25.135Z,0.97
2023-02-02T03:49:57.028Z,0.90
2023-02-02T03:50:28.708Z,1.00
2023-02-02T03:51:00.368Z,0.93
2023-02-02T03:51:32.011Z,1.03
2023-02-02T03:52:05.023Z,1.00
2023-02-02T03:52:38.588Z,1.27
2023-02-02T03:53:12.548Z,0.97
2023-02-02T03:53:50.112Z,0.87
2023-02-02T03:54:21.761Z,1.17
2023-02-02T03:54:53.418Z,0.93
2023-02-02T03:55:25.432Z,0.83
2023-02-02T03:56:00.035Z,1.10
2023-02-02T03:56:31.689Z,1.30
2023-02-02T03:57:03.336Z,1.10
2023-02-02T03:57:34.981Z,0.93
2023-02-02T03:58:06.655Z,0.97
2023-02-02T03:58:38.305Z,0.90
2023-02-02T03:59:09.951Z,0.87
2023-02-02T03:59:41.593Z,1.07
2023-02-02T04:00:13.681Z,0.97
2023-02-02T04:00:45.348Z,0.97
2023-02-02T04:01:17.113Z,1.10
2023-02-02T04:01:48.776Z,1.13
2023-02-02T04:02:20.410Z,1.30
2023-02-02T04:02:53.850Z,1.47
2023-02-02T04:03:25.555Z,1.17
2023-02-02T04:03:58.519Z,1.03
2023-02-02T04:04:30.286Z,0.97
2023-02-02T04:05:01.959Z,1.00
2023-02-02T04:05:35.856Z,1.10
2023-02-02T04:06:07.576Z,1.13
2023-02-02T04:06:39.294Z,1.17
2023-02-02T04:07:11.095Z,1.03
2023-02-02T04:07:42.756Z,1.03
2023-02-02T04:08:14.364Z,1.07
2023-02-02T04:08:46.155Z,1.17
2023-02-02T04:09:17.874Z,1.13
2023-02-02T04:09:51.623Z,1.20
2023-02-02T04:10:27.733Z,1.17
2023-02-02T04:10:59.678Z,1.17
2023-02-02T04:11:31.411Z,1.30
2023-02-02T04:12:03.091Z,0.97
2023-02-02T04:12:37.015Z,0.73
2023-02-02T04:13:08.680Z,1.10
2023-02-02T04:13:42.405Z,1.30
2023-02-02T04:14:14.193Z,0.97
2023-02-02T04:14:45.915Z,1.23
2023-02-02T04:15:17.645Z,1.10
2023-02-02T04:15:57.913Z,1.47
2023-02-02T04:16:34.696Z,1.23
2023-02-02T04:17:06.405Z,1.20
2023-02-02T04:17:38.096Z,1.10
2023-02-02T04:18:09.699Z,0.87
2023-02-02T04:18:41.391Z,1.20
2023-02-02T04:19:13.129Z,1.27
2023-02-02T04:19:44.812Z,1.20
2023-02-02T04:20:16.747Z,1.13
2023-02-02T04:20:48.400Z,0.93
2023-02-02T04:21:24.547Z,1.13
2023-02-02T04:21:58.518Z,1.43
2023-02-02T04:22:30.152Z,1.43
2023-02-02T04:23:01.901Z,1.37
2023-02-02T04:23:34.064Z,1.10
2023-02-02T04:24:07.416Z,1.30
2023-02-02T04:24:39.044Z,1.27
2023-02-02T04:25:10.706Z,1.03
2023-02-02T04:25:50.019Z,1.00
2023-02-02T04:26:21.725Z,0.93
2023-02-02T04:26:53.442Z,1.00
2023-02-02T04:27:32.425Z,1.27
2023-02-02T04:28:04.215Z,1.30
2023-02-02T04:28:36.342Z,0.83
2023-02-02T04:29:08.598Z,0.87
2023-02-02T04:29:40.247Z,0.90
2023-02-02T04:30:12.465Z,1.07
2023-02-02T04:30:45.983Z,0.93
2023-02-02T04:31:20.027Z,0.97
2023-02-02T04:31:51.915Z,0.97
2023-02-02T04:32:25.720Z,0.80
2023-02-02T04:32:57.389Z,1.20
2023-02-02T04:33:29.060Z,1.10
2023-02-02T04:34:01.384Z,1.00
2023-02-02T04:34:33.044Z,0.87
2023-02-02T04:35:07.018Z,0.83
2023-02-02T04:35:38.649Z,1.20
2023-02-02T04:36:10.924Z,1.17
2023-02-02T04:36:42.546Z,1.20
2023-02-02T04:37:14.275Z,1.13
2023-02-02T04:37:45.966Z,1.13
2023-02-02T04:38:20.713Z,0.97
2023-02-02T04:38:53.652Z,1.10
2023-02-02T04:39:25.380Z,1.30
2023-02-02T04:39:57.018Z,1.23
2023-02-02T04:40:28.711Z,1.23
2023-02-02T04:41:07.701Z,1.23
2023-02-02T04:41:39.351Z,1.03
2023-02-02T04:42:11.024Z,1.67
2023-02-02T04:42:42.662Z,1.27
2023-02-02T04:43:15.223Z,1.03
2023-02-02T04:43:47.283Z,1.23
2023-02-02T04:44:18.908Z,1.43
2023-02-02T04:44:50.610Z,1.23
2023-02-02T04:45:24.028Z,1.30
2023-02-02T04:45:56.998Z,1.07
2023-02-02T04:46:28.711Z,1.03
2023-02-02T04:47:00.385Z,1.37
2023-02-02T04:47:32.051Z,1.50
2023-02-02T04:48:04.518Z,1.43
2023-02-02T04:48:36.805Z,1.23
2023-02-02T04:49:11.333Z,1.23
2023-02-02T04:49:42.984Z,0.93
2023-02-02T04:50:16.517Z,1.13
2023-02-02T04:50:50.320Z,1.30
2023-02-02T04:51:21.989Z,1.30
2023-02-02T04:51:55.688Z,1.40
2023-02-02T04:52:29.081Z,1.47
2023-02-02T04:53:00.750Z,1.47
2023-02-02T04:53:33.176Z,1.73
2023-02-02T04:54:05.288Z,1.33
2023-02-02T04:54:36.960Z,1.63
2023-02-02T04:55:11.958Z,1.70
2023-02-02T04:55:43.613Z,2.20
2023-02-02T04:56:18.078Z,1.87
2023-02-02T04:56:49.810Z,2.13
2023-02-02T04:57:21.556Z,1.73
2023-02-02T04:57:53.182Z,1.23
2023-02-02T04:58:24.873Z,1.40
2023-02-02T04:58:56.582Z,1.60
2023-02-02T04:59:30.079Z,1.33
2023-02-02T05:00:03.904Z,1.37
2023-02-02T05:00:37.617Z,1.40
2023-02-02T05:01:22.438Z,1.37
2023-02-02T05:01:54.064Z,1.40
2023-02-02T05:02:25.768Z,1.47
2023-02-02T05:02:57.482Z,1.53
2023-02-02T05:03:29.179Z,1.33
2023-02-02T05:04:00.836Z,1.30
2023-02-02T05:04:32.560Z,1.37
2023-02-02T05:05:06.361Z,1.43
2023-02-02T05:05:38.231Z,1.47
2023-02-02T05:06:10.547Z,1.80
2023-02-02T05:06:42.380Z,2.07
2023-02-02T05:07:19.992Z,2.37
2023-02-02T05:07:51.649Z,1.80
2023-02-02T05:08:23.298Z,1.97
2023-02-02T05:08:57.607Z,2.20
2023-02-02T05:09:29.249Z,2.53
2023-02-02T05:10:00.915Z,3.47
2023-02-02T05:10:32.531Z,3.80
2023-02-02T05:11:23.564Z,3.10
2023-02-02T05:11:55.199Z,4.37
2023-02-02T05:12:26.867Z,3.63
2023-02-02T05:13:01.133Z,3.30
2023-02-02T05:13:32.793Z,2.37
2023-02-02T05:14:05.509Z,3.87
2023-02-02T05:14:39.361Z,2.63
2023-02-02T05:15:11.363Z,1.97
2023-02-02T05:15:43.018Z,1.87
2023-02-02T05:16:14.961Z,1.70
2023-02-02T05:16:46.720Z,1.50
2023-02-02T05:17:18.503Z,1.67
2023-02-02T05:17:50.285Z,1.83
2023-02-02T05:18:22.450Z,1.53
2023-02-02T05:18:56.726Z,1.13
2023-02-02T05:19:28.436Z,1.30
2023-02-02T05:20:09.213Z,1.53
2023-02-02T05:20:40.883Z,1.43
2023-02-02T05:21:12.724Z,1.33
2023-02-02T05:21:45.330Z,1.43
2023-02-02T05:22:16.996Z,1.43
2023-02-02T05:22:51.960Z,1.70
2023-02-02T05:23:23.599Z,1.93
2023-02-02T05:23:57.853Z,1.80
2023-02-02T05:24:29.491Z,1.43
2023-02-02T05:25:01.129Z,1.20
2023-02-02T05:25:32.785Z,1.43
2023-02-02T05:26:04.717Z,1.40
2023-02-02T05:26:36.352Z,1.50
2023-02-02T05:27:10.401Z,1.60
2023-02-02T05:27:46.556Z,1.40
2023-02-02T05:28:20.014Z,1.47
2023-02-02T05:28:52.255Z,1.43
2023-02-02T05:29:24.964Z,1.53
2023-02-02T05:29:56.686Z,1.50
2023-02-02T05:30:28.444Z,1.30
2023-02-02T05:31:00.163Z,1.40
2023-02-02T05:31:32.223Z,1.43
2023-02-02T05:32:05.923Z,1.43
2023-02-02T05:32:39.094Z,1.23
2023-02-02T05:33:11.399Z,1.43
2023-02-02T05:33:43.097Z,1.37
2023-02-02T05:34:14.865Z,1.67
2023-02-02T05:34:46.504Z,1.43
2023-02-02T05:35:18.175Z,1.37
2023-02-02T05:35:52.106Z,1.20
2023-02-02T05:36:23.736Z,1.10
2023-02-02T05:36:55.447Z,1.40
2023-02-02T05:37:27.127Z,1.33
2023-02-02T05:37:59.377Z,1.33
2023-02-02T05:38:31.088Z,1.53
2023-02-02T05:39:04.627Z,1.27
2023-02-02T05:39:36.305Z,1.23
2023-02-02T05:40:08.876Z,1.47
2023-02-02T05:40:40.618Z,1.40
2023-02-02T05:41:12.294Z,1.40
2023-02-02T05:41:44.351Z,1.13
2023-02-02T05:42:15.998Z,1.13
2023-02-02T05:42:49.420Z,1.10
2023-02-02T05:43:26.426Z,1.27
2023-02-02T05:44:08.547Z,1.47
2023-02-02T05:44:40.215Z,0.97
2023-02-02T05:45:11.840Z,0.90
2023-02-02T05:45:43.565Z,1.13
2023-02-02T05:46:15.470Z,1.17
2023-02-02T05:46:47.257Z,1.57
2023-02-02T05:47:19.071Z,1.37
2023-02-02T05:47:55.021Z,1.27
2023-02-02T05:48:27.355Z,1.37
2023-02-02T05:48:59.363Z,1.63
2023-02-02T05:49:32.228Z,1.60
2023-02-02T05:50:03.965Z,1.80
2023-02-02T05:50:35.665Z,1.67
2023-02-02T05:51:18.710Z,1.23
2023-02-02T05:51:54.997Z,1.20
2023-02-02T05:52:34.930Z,1.67
2023-02-02T05:53:06.580Z,1.67
2023-02-02T05:53:40.349Z,1.47
2023-02-02T05:54:13.038Z,1.43
2023-02-02T05:54:45.079Z,1.83
2023-02-02T05:55:19.915Z,1.40
2023-02-02T05:55:51.576Z,1.67
2023-02-02T05:56:23.356Z,1.57
2023-02-02T05:56:56.125Z,1.27
2023-02-02T05:57:28.119Z,1.33
2023-02-02T05:58:04.728Z,1.63
2023-02-02T05:58:36.434Z,1.53
2023-02-02T05:59:10.934Z,1.37
2023-02-02T05:59:42.553Z,1.53
2023-02-02T06:00:20.576Z,1.30
2023-02-02T06:00:55.584Z,1.23
2023-02-02T06:01:28.399Z,1.47
2023-02-02T06:02:00.043Z,1.33
2023-02-02T06:02:31.724Z,1.40
2023-02-02T06:03:03.532Z,1.27
2023-02-02T06:03:35.600Z,1.37
2023-02-02T06:04:07.370Z,1.73
2023-02-02T06:04:39.126Z,1.53
2023-02-02T06:05:17.914Z,1.30
2023-02-02T06:05:52.310Z,1.57
2023-02-02T06:06:23.992Z,1.60
2023-02-02T06:06:55.638Z,1.70
2023-02-02T06:07:27.328Z,1.80
2023-02-02T06:07:59.012Z,2.00
2023-02-02T06:08:30.790Z,2.00
2023-02-02T06:09:02.846Z,1.87
2023-02-02T06:09:34.532Z,1.70
2023-02-02T06:10:08.741Z,1.87
2023-02-02T06:10:41.874Z,2.00
2023-02-02T06:11:16.238Z,1.63
2023-02-02T06:11:47.878Z,1.77
2023-02-02T06:12:19.664Z,2.00
2023-02-02T06:12:51.342Z,1.80
2023-02-02T06:13:23.339Z,1.60
2023-02-02T06:13:54.956Z,1.50
2023-02-02T06:14:26.685Z,1.63
2023-02-02T06:14:58.322Z,1.83
2023-02-02T06:15:31.452Z,1.60
2023-02-02T06:16:05.347Z,1.80
2023-02-02T06:16:37.296Z,1.90
2023-02-02T06:17:08.972Z,1.77
2023-02-02T06:17:40.643Z,1.87
2023-02-02T06:18:12.318Z,1.87
2023-02-02T06:18:46.201Z,1.53
2023-02-02T06:19:19.028Z,1.90
2023-02-02T06:19:50.657Z,1.83
2023-02-02T06:20:24.364Z,2.10
2023-02-02T06:20:59.548Z,1.97
2023-02-02T06:21:31.809Z,1.73
2023-02-02T06:22:03.557Z,1.53
2023-02-02T06:22:35.251Z,1.73
2023-02-02T06:23:09.164Z,1.93
2023-02-02T06:23:45.819Z,1.67
2023-02-02T06:24:24.944Z,1.50
2023-02-02T06:24:56.579Z,1.37
2023-02-02T06:25:28.530Z,1.57
2023-02-02T06:26:00.732Z,1.27
2023-02-02T06:26:32.425Z,1.43
2023-02-02T06:27:04.265Z,1.63
2023-02-02T06:27:36.193Z,1.57
2023-02-02T06:28:13.014Z,2.70
2023-02-02T06:28:50.782Z,4.03
2023-02-02T06:29:22.498Z,2.40
2023-02-02T06:29:54.147Z,1.53
2023-02-02T06:30:26.492Z,1.93
2023-02-02T06:31:04.862Z,2.57
2023-02-02T06:31:36.762Z,3.57
2023-02-02T06:32:11.090Z,6.20
2023-02-02T06:32:42.817Z,4.83
2023-02-02T06:33:14.558Z,2.47
2023-02-02T06:33:55.532Z,1.53
2023-02-02T06:34:27.174Z,1.47
2023-02-02T06:34:58.814Z,1.40
2023-02-02T06:35:33.132Z,1.40
2023-02-02T06:36:07.127Z,1.47
2023-02-02T06:36:38.806Z,1.33
2023-02-02T06:37:10.696Z,1.00
2023-02-02T06:37:42.440Z,0.93
2023-02-02T06:38:14.113Z,0.93
2023-02-02T06:38:51.989Z,1.03
2023-02-02T06:39:23.655Z,1.53
2023-02-02T06:39:55.300Z,1.20
2023-02-02T06:40:28.555Z,1.30
2023-02-02T06:41:01.181Z,1.30
2023-02-02T06:41:32.864Z,1.43
2023-02-02T06:42:20.064Z,1.53
2023-02-02T06:42:59.499Z,1.33
2023-02-02T06:43:31.250Z,1.57
2023-02-02T06:44:03.247Z,1.40
2023-02-02T06:44:34.894Z,1.33
2023-02-02T06:45:07.718Z,1.33
2023-02-02T06:45:40.346Z,1.43
2023-02-02T06:46:14.109Z,1.77
2023-02-02T06:46:45.832Z,1.50
2023-02-02T06:47:17.479Z,1.53
2023-02-02T06:47:49.137Z,1.67
2023-02-02T06:48:29.803Z,1.30
2023-02-02T06:49:01.513Z,1.47
2023-02-02T06:49:33.187Z,1.33
2023-02-02T06:50:05.549Z,1.37
2023-02-02T06:50:41.264Z,1.30
2023-02-02T06:51:13.006Z,1.30
2023-02-02T06:51:46.551Z,1.30
2023-02-02T06:52:19.738Z,1.40
2023-02-02T06:52:54.932Z,1.27
2023-02-02T06:53:29.286Z,1.23
2023-02-02T06:54:00.999Z,1.53
2023-02-02T06:54:32.698Z,1.57
2023-02-02T06:55:04.602Z,1.10
2023-02-02T06:55:36.291Z,1.23
2023-02-02T06:56:16.135Z,1.27
2023-02-02T06:56:49.856Z,1.27
2023-02-02T06:57:21.488Z,1.27
2023-02-02T06:58:03.010Z,1.40
2023-02-02T06:58:35.040Z,1.17
2023-02-02T06:59:08.132Z,1.37
2023-02-02T06:59:43.614Z,1.47
2023-02-02T07:00:15.555Z,1.10
2023-02-02T07:00:51.066Z,1.10
2023-02-02T07:01:22.762Z,1.20
2023-02-02T07:01:54.487Z,1.13
2023-02-02T07:02:26.221Z,1.13
2023-02-02T07:03:00.744Z,1.37
2023-02-02T07:03:33.821Z,1.10
2023-02-02T07:04:07.539Z,1.03
2023-02-02T07:04:42.268Z,1.33
2023-02-02T07:05:14.009Z,1.43
2023-02-02T07:05:45.687Z,1.30
2023-02-02T07:06:20.045Z,1.60
2023-02-02T07:06:51.739Z,1.47
2023-02-02T07:07:25.814Z,1.60
2023-02-02T07:07:57.431Z,1.80
2023-02-02T07:08:29.096Z,2.23
2023-02-02T07:09:02.900Z,2.17
2023-02-02T07:09:35.697Z,1.73
2023-02-02T07:10:07.779Z,2.77
2023-02-02T07:11:13.389Z,3.27
2023-02-02T07:11:37.627Z,2.23
2023-02-02T07:12:14.181Z,2.67
2023-02-02T07:12:46.296Z,2.80
2023-02-02T07:13:20.085Z,2.43
2023-02-02T07:13:51.758Z,3.97
2023-02-02T07:14:23.404Z,3.50
2023-02-02T07:14:55.078Z,2.27
2023-02-02T07:15:27.004Z,2.23
2023-02-02T07:15:58.861Z,2.40
2023-02-02T07:16:31.154Z,2.03
2023-02-02T07:17:05.647Z,2.03
2023-02-02T07:17:37.352Z,2.57
2023-02-02T07:18:09.032Z,2.57
2023-02-02T07:18:45.031Z,2.33
2023-02-02T07:19:19.669Z,2.20
2023-02-02T07:19:54.033Z,2.40
2023-02-02T07:20:26.284Z,2.13
2023-02-02T07:21:01.440Z,2.17
2023-02-02T07:21:36.493Z,2.10
2023-02-02T07:22:08.277Z,2.07
2023-02-02T07:22:42.282Z,2.00
2023-02-02T07:23:13.950Z,2.00
2023-02-02T07:23:45.925Z,2.03
2023-02-02T07:24:20.308Z,1.97
2023-02-02T07:24:52.034Z,2.23
2023-02-02T07:25:24.345Z,2.23
2023-02-02T07:26:08.893Z,2.37
2023-02-02T07:26:42.051Z,2.33
2023-02-02T07:27:14.086Z,2.27
2023-02-02T07:27:52.826Z,2.10
2023-02-02T07:28:24.485Z,2.13
2023-02-02T07:28:56.170Z,2.27
2023-02-02T07:29:27.797Z,2.17
2023-02-02T07:30:02.265Z,2.17
2023-02-02T07:30:34.064Z,2.40
2023-02-02T07:31:19.068Z,2.53
2023-02-02T07:31:51.159Z,2.53
2023-02-02T07:32:24.084Z,2.67
2023-02-02T07:33:01.433Z,2.37
2023-02-02T07:34:24.547Z,2.37
2023-02-02T07:35:03.422Z,2.83
2023-02-02T07:35:35.267Z,2.33
2023-02-02T07:36:06.962Z,2.27
2023-02-02T07:36:41.174Z,2.53
2023-02-02T07:37:12.824Z,2.43
2023-02-02T07:37:44.502Z,2.60
2023-02-02T07:38:16.226Z,2.23
2023-02-02T07:38:48.714Z,2.40
2023-02-02T07:39:20.371Z,2.70
2023-02-02T07:39:51.986Z,2.50
2023-02-02T07:40:25.911Z,2.70
2023-02-02T07:41:01.443Z,2.53
2023-02-02T07:41:35.249Z,2.43
2023-02-02T07:42:10.655Z,2.33
2023-02-02T07:42:43.515Z,2.67
2023-02-02T07:43:16.017Z,2.67
2023-02-02T07:43:50.149Z,2.77